Time;durP1;ratioP1;P1;durP2;ratioP2;P2;SDS_P1;SDS_P2;PMS_P1;PMS_P2;Temp;Humidity;BMP_temperature;BMP_pressure;BME280_temperature;BME280_humidity;BME280_pressure;Samples;Min_cycle;Max_cycle;Signal;HPM_P1;HPM_P2
2023/05/07 00:02:25;;;;;;;;;;;;;;;14.02;85.26;101559.53;5036760;28;20011;-79
2023/05/07 00:04:51;;;;;;;;;;;;;;;14.03;86.04;101554.19;5053969;28;19925;-78
2023/05/07 00:07:17;;;;;;;;;;;;;;;14.02;85.38;101555.09;5054426;28;19970;-78
2023/05/07 00:09:42;;;;;;;;;;;;;;;14.01;85.32;101548.00;5048882;28;19948;-79
2023/05/07 00:12:08;;;;;;;;;;;;;;;14.03;85.20;101554.19;5054668;28;19916;-79
2023/05/07 00:14:33;;;;;;;;;;;;;;;14.06;85.02;101551.44;5053104;28;19920;-79
2023/05/07 00:16:58;;;;;;;;;;;;;;;14.08;85.52;101548.75;5054229;28;20065;-79
2023/05/07 00:19:24;;;;;;;;;;;;;;;14.08;85.69;101538.09;5052608;28;19920;-78
2023/05/07 00:21:49;;;;;;;;;;;;;;;14.09;86.03;101540.69;5052645;28;20449;-78
2023/05/07 00:24:15;;;;;;;;;;;;;;;14.07;85.22;101533.66;5052669;28;20384;-78
2023/05/07 00:26:40;;;;;;;;;;;;;;;14.07;85.86;101541.66;5053956;28;19913;-78
2023/05/07 00:29:05;;;;;;;;;;;;;;;14.06;86.20;101532.78;5052708;28;19960;-79
2023/05/07 00:31:31;;;;;;;;;;;;;;;14.06;84.82;101530.13;5059272;28;20402;-79
2023/05/07 00:33:56;;;;;;;;;;;;;;;14.05;85.67;101528.38;5053791;28;19917;-79
2023/05/07 00:36:21;;;;;;;;;;;;;;;14.05;85.69;101533.72;5055596;28;20419;-78
2023/05/07 00:38:47;;;;;;;;;;;;;;;14.04;86.34;101529.28;5053682;28;19928;-78
2023/05/07 00:41:12;;;;;;;;;;;;;;;14.05;86.11;101527.53;5041052;28;19917;-78
2023/05/07 00:43:38;;;;;;;;;;;;;;;14.04;84.16;101533.75;5053539;28;19932;-78
2023/05/07 00:46:03;;;;;;;;;;;;;;;14.05;85.28;101527.53;5052308;28;19917;-78
2023/05/07 00:48:28;;;;;;;;;;;;;;;14.05;86.05;101525.72;5052102;28;20341;-78
2023/05/07 00:50:54;;;;;;;;;;;;;;;14.07;85.86;101520.34;5032236;28;20316;-78
2023/05/07 00:53:20;;;;;;;;;;;;;;;14.08;86.14;101522.97;5044470;28;19927;-78
2023/05/07 00:55:45;;;;;;;;;;;;;;;14.09;86.75;101526.50;5052071;28;20260;-78
2023/05/07 00:58:11;;;;;;;;;;;;;;;14.08;87.38;101516.78;5052409;28;19932;-78
2023/05/07 01:00:36;;;;;;;;;;;;;;;14.06;87.06;101513.28;5039024;28;19921;-78
2023/05/07 01:03:02;;;;;;;;;;;;;;;14.07;85.97;101523.00;5053250;28;19921;-78
2023/05/07 01:05:28;;;;;;;;;;;;;;;14.08;86.47;101522.13;5048879;28;20502;-79
2023/05/07 01:07:55;;;;;;;;;;;;;;;14.09;86.09;101522.06;5053701;28;20413;-78
2023/05/07 01:10:20;;;;;;;;;;;;;;;14.11;85.79;101514.91;5051720;28;19917;-78
2023/05/07 01:12:47;;;;;;;;;;;;;;;14.11;86.22;101512.25;5051253;28;19912;-78
2023/05/07 01:15:13;;;;;;;;;;;;;;;14.12;86.32;101513.09;5068251;28;19927;-78
2023/05/07 01:17:39;;;;;;;;;;;;;;;14.13;86.24;101514.88;5055267;28;20011;-78
2023/05/07 01:20:10;;;;;;;;;;;;;;;14.12;86.85;101513.09;5051148;28;20360;-78
2023/05/07 01:22:37;;;;;;;;;;;;;;;14.11;87.46;101512.25;5068326;28;20264;-78
2023/05/07 01:25:02;;;;;;;;;;;;;;;14.11;87.16;101511.38;5051348;28;19913;-78
2023/05/07 01:27:29;;;;;;;;;;;;;;;14.10;86.62;101506.97;5051702;28;19963;-79
2023/05/07 01:29:58;;;;;;;;;;;;;;;14.10;86.83;101504.31;5051233;28;19967;-78
2023/05/07 01:32:27;;;;;;;;;;;;;;;14.09;86.12;101500.75;5033979;28;20327;-78
2023/05/07 01:34:53;;;;;;;;;;;;;;;14.11;85.98;101500.72;5051402;28;19986;-83
2023/05/07 01:37:19;;;;;;;;;;;;;;;14.13;86.65;101502.44;5052794;28;20485;-82
2023/05/07 01:39:45;;;;;;;;;;;;;;;14.12;87.27;101494.47;5051403;28;19913;-82
2023/05/07 01:42:11;;;;;;;;;;;;;;;14.12;86.82;101491.81;5052981;28;20299;-83
2023/05/07 01:44:37;;;;;;;;;;;;;;;14.11;87.00;101493.59;5051089;28;19942;-83
2023/05/07 01:47:03;;;;;;;;;;;;;;;14.11;87.14;101487.41;5052941;28;20132;-82
2023/05/07 01:49:28;;;;;;;;;;;;;;;14.09;88.04;101489.22;5018696;28;20058;-82
2023/05/07 01:51:53;;;;;;;;;;;;;;;14.08;87.24;101483.03;5027183;28;20273;-83
2023/05/07 01:54:20;;;;;;;;;;;;;;;14.09;87.07;101476.78;5052214;28;19995;-83
2023/05/07 01:56:47;;;;;;;;;;;;;;;14.08;87.56;101491.03;5065685;28;20318;-81
2023/05/07 01:59:13;;;;;;;;;;;;;;;14.09;86.94;101489.22;5059628;28;19921;-82
2023/05/07 02:01:38;;;;;;;;;;;;;;;14.08;86.91;101495.47;5065039;28;19940;-82
2023/05/07 02:04:04;;;;;;;;;;;;;;;14.07;87.53;101489.28;5055818;28;19952;-82
2023/05/07 02:06:31;;;;;;;;;;;;;;;14.06;87.58;101487.50;5073771;28;20430;-82
2023/05/07 02:09:01;;;;;;;;;;;;;;;14.07;87.90;101493.72;5055834;28;20025;-82
2023/05/07 02:11:27;;;;;;;;;;;;;;;14.04;87.46;101491.13;5034704;28;19975;-82
2023/05/07 02:13:53;;;;;;;;;;;;;;;14.04;87.59;101491.13;5057680;28;19923;-82
2023/05/07 02:16:19;;;;;;;;;;;;;;;14.05;87.67;101487.56;5034427;28;19920;-82
2023/05/07 02:18:45;;;;;;;;;;;;;;;14.05;88.27;101484.91;5058971;28;19939;-82
2023/05/07 02:21:10;;;;;;;;;;;;;;;14.04;88.18;101485.81;5028759;28;20436;-82
2023/05/07 02:23:36;;;;;;;;;;;;;;;14.04;87.95;101483.16;5050987;28;20273;-82
2023/05/07 02:26:02;;;;;;;;;;;;;;;14.04;88.38;101491.13;5053141;28;19925;-81
2023/05/07 02:28:27;;;;;;;;;;;;;;;14.04;87.90;101492.00;5035543;28;19917;-82
2023/05/07 02:31:00;;;;;;;;;;;;;;;14.05;87.87;101491.09;5048620;28;19970;-82
2023/05/07 02:33:26;;;;;;;;;;;;;;;14.06;88.11;101486.66;5063926;28;19927;-82
2023/05/07 02:35:52;;;;;;;;;;;;;;;14.06;87.62;101490.19;5038421;28;19912;-82
2023/05/07 02:38:17;;;;;;;;;;;;;;;14.07;87.81;101491.94;5056205;28;19925;-82
2023/05/07 02:40:43;;;;;;;;;;;;;;;14.06;87.98;101490.19;5038262;28;20351;-82
2023/05/07 02:43:08;;;;;;;;;;;;;;;14.07;88.00;101486.63;5038374;28;19921;-82
2023/05/07 02:45:35;;;;;;;;;;;;;;;14.07;87.80;101493.72;5054855;28;19913;-82
2023/05/07 02:48:02;;;;;;;;;;;;;;;14.06;87.30;101487.50;5054972;28;19921;-82
2023/05/07 02:50:27;;;;;;;;;;;;;;;14.07;87.17;101488.38;5057107;28;20341;-82
2023/05/07 02:52:54;;;;;;;;;;;;;;;14.04;88.31;101489.34;5054945;28;20105;-82
2023/05/07 02:55:19;;;;;;;;;;;;;;;14.04;89.96;101480.47;5055771;28;19916;-82
2023/05/07 02:57:44;;;;;;;;;;;;;;;14.02;88.60;101485.88;5055071;28;19921;-83
2023/05/07 03:00:15;;;;;;;;;;;;;;;14.04;88.18;101485.81;5052875;28;19917;-82
2023/05/07 03:02:47;;;;;;;;;;;;;;;14.05;88.00;101490.25;5054420;28;19947;-82
2023/05/07 03:05:14;;;;;;;;;;;;;;;14.05;88.20;101482.25;5037398;28;19951;-82
2023/05/07 03:07:39;;;;;;;;;;;;;;;14.05;89.33;101487.56;5031014;28;19921;-82
2023/05/07 03:10:05;;;;;;;;;;;;;;;14.05;89.37;101485.78;5054451;28;20437;-81
2023/05/07 03:12:31;;;;;;;;;;;;;;;14.03;88.85;101482.28;5054373;28;20348;-82
2023/05/07 03:14:57;;;;;;;;;;;;;;;14.04;89.59;101489.34;5040142;28;19921;-82
2023/05/07 03:17:22;;;;;;;;;;;;;;;14.03;89.27;101490.28;5037798;28;19920;-82
2023/05/07 03:19:47;;;;;;;;;;;;;;;14.02;88.03;101491.19;5053884;28;19920;-81
2023/05/07 03:22:13;;;;;;;;;;;;;;;14.01;88.60;101489.44;5054404;28;19917;-82
2023/05/07 03:24:38;;;;;;;;;;;;;;;14.01;87.58;101493.88;5054077;28;19981;-82
2023/05/07 03:27:03;;;;;;;;;;;;;;;13.98;89.04;101498.38;5025117;28;19959;-82
2023/05/07 03:29:29;;;;;;;;;;;;;;;13.96;89.84;101492.22;5037670;28;19932;-81
2023/05/07 03:31:55;;;;;;;;;;;;;;;13.94;89.62;101488.69;5045804;28;20023;-82
2023/05/07 03:34:22;;;;;;;;;;;;;;;13.94;89.38;101485.16;5037154;28;19920;-82
2023/05/07 03:36:50;;;;;;;;;;;;;;;13.94;89.36;101482.50;5051041;28;19977;-82
2023/05/07 03:39:17;;;;;;;;;;;;;;;13.94;89.53;101479.84;5044371;28;19925;-81
2023/05/07 03:41:43;;;;;;;;;;;;;;;13.94;89.45;101478.06;5049468;28;19913;-82
2023/05/07 03:44:08;;;;;;;;;;;;;;;13.94;89.68;101464.72;5053752;28;20390;-82
2023/05/07 03:46:34;;;;;;;;;;;;;;;13.93;89.54;101473.66;5043805;28;19917;-82
2023/05/07 03:48:59;;;;;;;;;;;;;;;13.93;90.87;101473.66;5054006;28;19920;-81
2023/05/07 03:51:25;;;;;;;;;;;;;;;13.92;89.85;101482.56;5053350;28;19959;-81
2023/05/07 03:53:56;;;;;;;;;;;;;;;13.91;90.06;101479.94;5053268;28;19923;-82
2023/05/07 03:56:26;;;;;;;;;;;;;;;13.91;90.10;101485.25;5037783;28;20010;-81
2023/05/07 03:58:54;;;;;;;;;;;;;;;13.90;90.00;101489.72;5053559;28;20024;-82
2023/05/07 04:01:19;;;;;;;;;;;;;;;13.89;89.90;101490.59;5053218;28;20007;-82
2023/05/07 04:03:45;;;;;;;;;;;;;;;13.89;89.96;101485.28;5053101;28;20024;-82
2023/05/07 04:06:11;;;;;;;;;;;;;;;13.89;89.96;101487.94;5046366;28;20589;-82
2023/05/07 04:08:37;;;;;;;;;;;;;;;13.90;90.12;101494.16;5046577;28;20368;-82
2023/05/07 04:11:04;;;;;;;;;;;;;;;13.91;90.47;101490.59;5054515;28;19960;-82
2023/05/07 04:13:32;;;;;;;;;;;;;;;13.91;90.14;101495.91;5036973;28;20015;-82
2023/05/07 04:16:00;;;;;;;;;;;;;;;13.91;90.54;101498.56;5052794;28;20268;-82
2023/05/07 04:18:27;;;;;;;;;;;;;;;13.91;90.39;101499.44;5036392;28;19913;-81
2023/05/07 04:20:52;;;;;;;;;;;;;;;13.91;90.43;101507.44;5032909;28;19927;-82
2023/05/07 04:23:21;;;;;;;;;;;;;;;13.92;90.60;101500.31;5036284;28;19913;-81
2023/05/07 04:25:46;;;;;;;;;;;;;;;13.92;90.23;101500.31;5032801;28;19936;-82
2023/05/07 04:28:20;;;;;;;;;;;;;;;13.92;90.96;101505.63;5052953;28;19924;-81
2023/05/07 04:30:46;;;;;;;;;;;;;;;13.92;90.51;101506.53;5051781;28;19921;-82
2023/05/07 04:33:13;;;;;;;;;;;;;;;13.92;90.34;101506.53;5047803;28;20371;-82
2023/05/07 04:35:41;;;;;;;;;;;;;;;13.93;90.95;101499.41;5036502;28;20013;-81
2023/05/07 04:38:07;;;;;;;;;;;;;;;13.93;90.98;101504.72;5056022;28;20336;-82
2023/05/07 04:40:32;;;;;;;;;;;;;;;13.92;90.74;101511.84;5036192;28;19952;-81
2023/05/07 04:43:01;;;;;;;;;;;;;;;13.92;90.89;101503.88;5052964;28;20303;-81
2023/05/07 04:45:29;;;;;;;;;;;;;;;13.95;90.02;101513.56;5032870;28;19925;-82
2023/05/07 04:47:54;;;;;;;;;;;;;;;13.96;91.17;101513.50;5048741;28;19924;-82
2023/05/07 04:50:20;;;;;;;;;;;;;;;13.94;91.24;101520.66;5041081;28;19917;-81
2023/05/07 04:52:47;;;;;;;;;;;;;;;13.95;91.67;101521.56;5054192;28;19917;-81
2023/05/07 04:55:13;;;;;;;;;;;;;;;13.95;91.11;101522.41;5034042;28;20269;-82
2023/05/07 04:57:41;;;;;;;;;;;;;;;13.98;91.13;101516.16;5028925;28;19921;-81
2023/05/07 05:00:08;;;;;;;;;;;;;;;14.00;91.20;101511.66;5052540;28;19978;-82
2023/05/07 05:02:35;;;;;;;;;;;;;;;14.02;91.26;101515.16;5053933;28;20286;-82
2023/05/07 05:05:03;;;;;;;;;;;;;;;14.05;91.55;101520.41;5005432;28;19925;-82
2023/05/07 05:07:30;;;;;;;;;;;;;;;14.07;91.25;101523.00;5053697;28;19924;-82
2023/05/07 05:09:55;;;;;;;;;;;;;;;14.09;91.94;101516.72;5043459;28;19925;-81
2023/05/07 05:12:22;;;;;;;;;;;;;;;14.13;92.25;101522.88;5047310;28;20054;-82
2023/05/07 05:14:48;;;;;;;;;;;;;;;14.16;92.01;101530.78;5051966;28;19917;-82
2023/05/07 05:17:14;;;;;;;;;;;;;;;14.20;91.42;101529.78;5050249;28;19921;-78
2023/05/07 05:19:40;;;;;;;;;;;;;;;14.24;91.77;101533.22;5048223;28;19977;-78
2023/05/07 05:22:05;;;;;;;;;;;;;;;14.29;92.31;101540.22;5052704;28;20426;-78
2023/05/07 05:24:31;;;;;;;;;;;;;;;14.33;91.47;101525.88;5018138;28;20453;-78
2023/05/07 05:26:58;;;;;;;;;;;;;;;14.38;90.09;101528.41;5051266;28;19928;-78
2023/05/07 05:29:23;;;;;;;;;;;;;;;14.43;91.31;101537.16;5034639;28;19916;-78
2023/05/07 05:31:49;;;;;;;;;;;;;;;14.47;90.35;101543.31;5051263;28;19917;-78
2023/05/07 05:34:14;;;;;;;;;;;;;;;14.49;91.47;101542.34;5052751;28;20306;-78
2023/05/07 05:36:41;;;;;;;;;;;;;;;14.52;90.35;101544.91;5051791;28;19999;-79
2023/05/07 05:39:08;;;;;;;;;;;;;;;14.55;90.82;101538.66;5046161;28;19967;-79
2023/05/07 05:41:33;;;;;;;;;;;;;;;14.57;90.26;101550.16;5044833;28;19923;-78
2023/05/07 05:43:59;;;;;;;;;;;;;;;14.56;91.31;101551.97;5041427;28;19932;-78
2023/05/07 05:46:25;;;;;;;;;;;;;;;14.60;91.69;101552.75;5049713;28;19920;-79
2023/05/07 05:48:50;;;;;;;;;;;;;;;14.60;91.03;101553.59;5034300;28;19939;-78
2023/05/07 05:51:16;;;;;;;;;;;;;;;14.63;91.75;101553.50;5051952;28;20323;-78
2023/05/07 05:53:41;;;;;;;;;;;;;;;14.66;92.42;101555.22;5052137;28;20025;-78
2023/05/07 05:56:07;;;;;;;;;;;;;;;14.68;92.66;101548.06;5042352;28;19921;-79
2023/05/07 05:58:33;;;;;;;;;;;;;;;14.71;92.33;101547.09;5043838;28;19913;-78
2023/05/07 06:01:03;;;;;;;;;;;;;;;14.74;92.18;101550.56;5050230;28;20392;-78
2023/05/07 06:03:29;;;;;;;;;;;;;;;14.79;90.75;101547.78;5023810;28;19925;-78
2023/05/07 06:05:57;;;;;;;;;;;;;;;14.83;91.90;101549.44;5047216;28;19925;-79
2023/05/07 06:08:22;;;;;;;;;;;;;;;14.86;92.01;101548.47;5034229;28;19923;-79
2023/05/07 06:10:47;;;;;;;;;;;;;;;14.91;91.79;101555.44;5051775;28;19935;-78
2023/05/07 06:13:13;;;;;;;;;;;;;;;14.95;91.45;101551.75;5050762;28;19967;-79
2023/05/07 06:15:40;;;;;;;;;;;;;;;15.00;90.91;101552.47;5017740;28;19967;-79
2023/05/07 06:18:09;;;;;;;;;;;;;;;15.06;91.92;101559.47;5030550;28;19921;-79
2023/05/07 06:20:34;;;;;;;;;;;;;;;15.11;89.90;101557.53;5039330;28;19924;-79
2023/05/07 06:23:03;;;;;;;;;;;;;;;15.16;91.75;101560.94;5049533;28;19921;-79
2023/05/07 06:25:31;;;;;;;;;;;;;;;15.21;91.89;101559.00;5030615;28;19917;-79
2023/05/07 06:27:57;;;;;;;;;;;;;;;15.24;92.00;101561.56;5031151;28;20011;-79
2023/05/07 06:30:24;;;;;;;;;;;;;;;15.28;90.30;101557.00;5050194;28;20241;-79
2023/05/07 06:32:49;;;;;;;;;;;;;;;15.27;90.18;101561.47;5050604;28;20106;-79
2023/05/07 06:35:15;;;;;;;;;;;;;;;15.30;89.18;101557.84;5043039;28;20458;-80
2023/05/07 06:37:42;;;;;;;;;;;;;;;15.32;89.91;101556.00;5045452;28;19924;-79
2023/05/07 06:40:12;;;;;;;;;;;;;;;15.34;89.84;101562.16;5020573;28;19924;-79
2023/05/07 06:42:39;;;;;;;;;;;;;;;15.38;89.61;101562.94;5050741;28;19995;-79
2023/05/07 06:45:22;;;;;;;;;;;;;;;15.40;90.19;101563.78;5033451;28;19943;-80
2023/05/07 06:47:47;;;;;;;;;;;;;;;15.43;90.04;101566.34;5033662;28;19929;-79
2023/05/07 06:50:13;;;;;;;;;;;;;;;15.47;90.43;101576.00;5019416;28;20376;-79
2023/05/07 06:52:39;;;;;;;;;;;;;;;15.49;89.50;101572.38;5033930;28;19971;-78
2023/05/07 06:55:05;;;;;;;;;;;;;;;15.51;89.33;101567.00;5035770;28;19917;-80
2023/05/07 06:57:31;;;;;;;;;;;;;;;15.54;90.19;101574.91;5025334;28;19921;-79
2023/05/07 06:59:57;;;;;;;;;;;;;;;15.58;89.16;101570.34;5044579;28;20425;-83
2023/05/07 07:02:22;;;;;;;;;;;;;;;15.60;90.53;101573.84;5030486;28;19928;-84
2023/05/07 07:04:48;;;;;;;;;;;;;;;15.65;89.24;101577.22;5033402;28;20358;-83
2023/05/07 07:07:14;;;;;;;;;;;;;;;15.67;90.09;101576.25;5051865;28;20015;-83
2023/05/07 07:09:42;;;;;;;;;;;;;;;15.69;89.66;101571.78;5033512;28;20304;-83
2023/05/07 07:12:09;;;;;;;;;;;;;;;15.71;90.48;101571.75;5029364;28;20016;-84
2023/05/07 07:14:36;;;;;;;;;;;;;;;15.76;90.95;101579.63;5037316;28;19917;-83
2023/05/07 07:17:02;;;;;;;;;;;;;;;15.81;89.95;101572.34;5053255;28;19921;-84
2023/05/07 07:19:28;;;;;;;;;;;;;;;15.86;89.17;101570.38;5036770;28;20375;-83
2023/05/07 07:21:54;;;;;;;;;;;;;;;15.90;90.23;101570.25;5037231;28;19928;-84
2023/05/07 07:24:21;;;;;;;;;;;;;;;15.95;89.24;101578.09;5037083;28;19921;-83
2023/05/07 07:26:49;;;;;;;;;;;;;;;16.01;89.42;101579.69;5021651;28;19920;-84
2023/05/07 07:29:15;;;;;;;;;;;;;;;16.10;90.04;101579.41;5055257;28;19924;-84
2023/05/07 07:31:42;;;;;;;;;;;;;;;16.18;90.03;101582.69;5042563;28;20403;-84
2023/05/07 07:34:08;;;;;;;;;;;;;;;16.26;90.07;101590.44;5046484;28;19967;-84
2023/05/07 07:36:34;;;;;;;;;;;;;;;16.32;89.05;101591.13;5055620;28;19956;-84
2023/05/07 07:38:59;;;;;;;;;;;;;;;16.35;89.57;101584.78;5039916;28;19917;-84
2023/05/07 07:41:25;;;;;;;;;;;;;;;16.38;88.84;101589.16;5055482;28;19921;-84
2023/05/07 07:43:51;;;;;;;;;;;;;;;16.37;90.19;101596.31;5029921;28;19984;-84
2023/05/07 07:46:19;;;;;;;;;;;;;;;16.39;90.45;101596.25;5056782;28;20232;-84
2023/05/07 07:48:45;;;;;;;;;;;;;;;16.41;89.80;101597.94;5055060;28;19927;-84
2023/05/07 07:51:10;;;;;;;;;;;;;;;16.45;88.49;101599.59;5042302;28;19942;-84
2023/05/07 07:53:36;;;;;;;;;;;;;;;16.50;90.34;101605.66;5053544;28;20376;-84
2023/05/07 07:56:05;;;;;;;;;;;;;;;16.55;90.19;101605.50;5043083;28;20299;-83
2023/05/07 07:58:36;;;;;;;;;;;;;;;16.65;89.83;101601.56;5036371;28;19917;-84
2023/05/07 08:01:02;;;;;;;;;;;;;;;16.76;90.17;101596.72;5054728;28;19927;-85
2023/05/07 08:03:31;;;;;;;;;;;;;;;16.87;88.99;101600.84;5036713;28;19917;-84
2023/05/07 08:05:57;;;;;;;;;;;;;;;16.95;89.33;101599.63;5045308;28;19917;-85
2023/05/07 08:08:23;;;;;;;;;;;;;;;17.03;88.30;101596.66;5047409;28;19967;-83
2023/05/07 08:10:50;;;;;;;;;;;;;;;17.09;87.21;101598.25;5053043;28;20023;-84
2023/05/07 08:13:23;;;;;;;;;;;;;;;17.14;87.50;101597.16;5053413;28;19916;-83
2023/05/07 08:15:48;;;;;;;;;;;;;;;17.23;88.80;101587.91;5036134;28;19921;-84
2023/05/07 08:18:15;;;;;;;;;;;;;;;17.33;87.12;101597.34;5036670;28;20425;-84
2023/05/07 08:20:44;;;;;;;;;;;;;;;17.44;88.37;101596.06;5040039;28;19923;-84
2023/05/07 08:23:14;;;;;;;;;;;;;;;17.57;88.00;101602.69;5023756;28;19920;-84
2023/05/07 08:25:42;;;;;;;;;;;;;;;17.69;87.67;101604.88;5040249;28;20409;-84
2023/05/07 08:28:08;;;;;;;;;;;;;;;17.78;86.26;101606.34;5033036;28;19924;-84
2023/05/07 08:30:37;;;;;;;;;;;;;;;17.83;85.20;101604.38;5043819;28;20016;-85
2023/05/07 08:33:03;;;;;;;;;;;;;;;17.86;86.15;101612.28;5051554;28;20440;-84
2023/05/07 08:35:28;;;;;;;;;;;;;;;17.92;85.45;101609.34;5049597;28;20008;-85
2023/05/07 08:37:54;;;;;;;;;;;;;;;17.99;85.94;101610.84;5052658;28;19917;-85
2023/05/07 08:40:24;;;;;;;;;;;;;;;18.06;84.53;101603.44;5043986;28;19921;-85
2023/05/07 08:42:51;;;;;;;;;;;;;;;18.10;84.13;101606.84;5052521;28;19917;-85
2023/05/07 08:45:18;;;;;;;;;;;;;;;18.10;84.73;101605.06;5052458;28;20376;-84
2023/05/07 08:47:46;;;;;;;;;;;;;;;18.12;84.65;101599.63;5052835;28;19980;-85
2023/05/07 08:50:12;;;;;;;;;;;;;;;18.24;85.46;101608.00;5035842;28;19917;-84
2023/05/07 08:52:39;;;;;;;;;;;;;;;18.40;85.34;101608.25;5052703;28;20380;-84
2023/05/07 08:55:05;;;;;;;;;;;;;;;18.55;84.85;101608.56;5038091;28;19913;-85
2023/05/07 08:57:31;;;;;;;;;;;;;;;18.68;84.78;101609.75;5044081;28;19921;-84
2023/05/07 08:59:58;;;;;;;;;;;;;;;18.78;84.34;101611.13;5030589;28;19964;-85
2023/05/07 09:02:23;;;;;;;;;;;;;;;18.88;83.58;101617.81;5052556;28;19983;-84
2023/05/07 09:04:49;;;;;;;;;;;;;;;18.96;83.84;101616.63;5035487;28;19998;-84
2023/05/07 09:07:15;;;;;;;;;;;;;;;19.04;84.11;101614.44;5052129;28;19921;-83
2023/05/07 09:09:43;;;;;;;;;;;;;;;19.15;83.68;101611.31;5019554;28;19917;-84
2023/05/07 09:12:10;;;;;;;;;;;;;;;19.21;82.92;101611.88;5045388;28;20007;-84
2023/05/07 09:14:36;;;;;;;;;;;;;;;19.23;83.41;101611.81;5051933;28;19994;-84
2023/05/07 09:17:04;;;;;;;;;;;;;;;19.29;82.59;101615.09;5035830;28;20039;-84
2023/05/07 09:19:29;;;;;;;;;;;;;;;19.30;82.36;101606.09;5051564;28;19943;-83
2023/05/07 09:22:02;;;;;;;;;;;;;;;19.31;82.30;101615.00;5051942;28;19931;-83
2023/05/07 09:24:34;;;;;;;;;;;;;;;19.39;82.21;101612.84;5057928;28;20358;-83
2023/05/07 09:27:02;;;;;;;;;;;;;;;19.44;81.87;101616.19;5055894;28;19921;-83
2023/05/07 09:29:30;;;;;;;;;;;;;;;19.48;81.83;101619.59;5037373;28;19924;-83
2023/05/07 09:31:56;;;;;;;;;;;;;;;19.54;81.87;101617.50;5051224;28;19917;-83
2023/05/07 09:34:24;;;;;;;;;;;;;;;19.61;81.57;101610.03;5049532;28;19990;-83
2023/05/07 09:36:50;;;;;;;;;;;;;;;19.65;81.73;101610.75;5051292;28;20386;-84
2023/05/07 09:39:16;;;;;;;;;;;;;;;19.70;80.92;101614.13;5036856;28;19917;-83
2023/05/07 09:41:45;;;;;;;;;;;;;;;19.76;80.97;101616.53;5034355;28;20406;-83
2023/05/07 09:44:21;;;;;;;;;;;;;;;19.75;80.54;101618.31;5035535;28;20076;-83
2023/05/07 09:46:53;;;;;;;;;;;;;;;19.76;80.82;101620.09;5020803;28;19917;-83
2023/05/07 09:49:29;;;;;;;;;;;;;;;19.82;80.57;101613.53;5035272;28;19924;-84
2023/05/07 09:52:01;;;;;;;;;;;;;;;19.86;80.04;101608.91;5037115;28;19925;-84
2023/05/07 09:54:30;;;;;;;;;;;;;;;19.89;80.25;101619.50;5026007;28;19917;-83
2023/05/07 09:56:58;;;;;;;;;;;;;;;19.88;80.01;101615.03;5034437;28;20019;-83
2023/05/07 09:59:26;;;;;;;;;;;;;;;19.83;80.19;101622.47;5024272;28;19924;-83
2023/05/07 10:01:56;;;;;;;;;;;;;;;19.84;80.14;101621.53;5047182;28;20375;-83
2023/05/07 10:04:22;;;;;;;;;;;;;;;19.86;80.20;101615.13;5033961;28;20318;-83
2023/05/07 10:06:48;;;;;;;;;;;;;;;19.91;79.86;101626.53;5050922;28;19928;-83
2023/05/07 10:09:15;;;;;;;;;;;;;;;19.98;79.97;101624.44;5034299;28;19917;-83
2023/05/07 10:11:43;;;;;;;;;;;;;;;20.08;79.20;101625.72;5034632;28;19913;-83
2023/05/07 10:14:10;;;;;;;;;;;;;;;20.11;79.58;101619.31;5036922;28;19921;-83
2023/05/07 10:16:36;;;;;;;;;;;;;;;20.18;79.06;101618.06;5051362;28;19996;-83
2023/05/07 10:19:04;;;;;;;;;;;;;;;20.19;79.16;101611.72;5050016;28;20269;-83
2023/05/07 10:21:34;;;;;;;;;;;;;;;20.27;79.34;101622.09;5040661;28;20117;-83
2023/05/07 10:24:05;;;;;;;;;;;;;;;20.31;78.52;101619.19;5038830;28;19928;-83
2023/05/07 10:26:32;;;;;;;;;;;;;;;20.37;78.90;101626.06;5034706;28;19931;-83
2023/05/07 10:29:01;;;;;;;;;;;;;;;20.43;78.22;101627.59;5053977;28;19980;-83
2023/05/07 10:31:40;;;;;;;;;;;;;;;20.46;78.39;101622.91;5053143;28;19920;-83
2023/05/07 10:34:11;;;;;;;;;;;;;;;20.49;77.39;101628.13;5038732;28;20028;-83
2023/05/07 10:36:37;;;;;;;;;;;;;;;20.39;78.25;101630.41;5046069;28;19917;-83
2023/05/07 10:39:02;;;;;;;;;;;;;;;20.35;77.99;101627.94;5042020;28;20007;-83
2023/05/07 10:41:30;;;;;;;;;;;;;;;20.36;78.31;101627.03;5033926;28;19956;-83
2023/05/07 10:44:02;;;;;;;;;;;;;;;20.41;78.07;101633.91;5050176;28;20428;-83
2023/05/07 10:46:32;;;;;;;;;;;;;;;20.44;77.73;101626.63;5051724;28;20390;-83
2023/05/07 10:49:07;;;;;;;;;;;;;;;20.49;78.11;101624.56;5035858;28;20381;-83
2023/05/07 10:52:11;;;;;;;;;;;;;;;20.53;77.57;101624.34;5048014;28;19932;-83
2023/05/07 10:54:38;;;;;;;;;;;;;;;20.59;77.47;101625.88;5054242;28;20321;-83
2023/05/07 10:57:27;;;;;;;;;;;;;;;20.64;77.63;101628.34;5054395;28;20015;-83
2023/05/07 10:59:53;;;;;;;;;;;;;;;20.74;77.78;101625.06;5054221;28;19970;-84
2023/05/07 11:02:44;;;;;;;;;;;;;;;20.86;77.45;101623.56;5041133;28;19970;-83
2023/05/07 11:05:22;;;;;;;;;;;;;;;20.97;77.24;101618.50;5054564;28;20009;-83
2023/05/07 11:08:00;;;;;;;;;;;;;;;21.07;76.93;101618.00;5038424;28;19963;-83
2023/05/07 11:10:48;;;;;;;;;;;;;;;21.15;76.45;101616.63;5053427;28;20345;-84
2023/05/07 11:13:56;;;;;;;;;;;;;;;21.25;76.37;101625.09;5053836;28;20269;-83
2023/05/07 11:17:01;;;;;;;;;;;;;;;21.36;76.02;101627.19;5026196;28;19925;-83
2023/05/07 11:19:45;;;;;;;;;;;;;;;21.43;75.83;101623.25;5047540;28;20375;-83
2023/05/07 11:22:30;;;;;;;;;;;;;;;21.47;75.61;101620.31;5042338;28;19924;-83
2023/05/07 11:25:05;;;;;;;;;;;;;;;21.54;74.37;101615.44;5038172;28;20003;-84
2023/05/07 11:27:35;;;;;;;;;;;;;;;21.60;73.67;101631.28;5066467;28;20435;-84
2023/05/07 11:30:03;;;;;;;;;;;;;;;21.66;74.30;101628.25;5072085;28;19967;-83
2023/05/07 11:32:30;;;;;;;;;;;;;;;21.78;73.70;101631.19;5053512;28;19924;-83
2023/05/07 11:34:56;;;;;;;;;;;;;;;21.83;73.21;101631.81;5043689;28;20012;-83
2023/05/07 11:37:22;;;;;;;;;;;;;;;21.85;73.29;101630.75;5055779;28;20377;-84
2023/05/07 11:40:07;;;;;;;;;;;;;;;21.98;73.00;101627.34;5071806;28;19916;-83
2023/05/07 11:42:33;;;;;;;;;;;;;;;22.11;72.22;101631.97;5072512;28;20000;-84
2023/05/07 11:44:59;;;;;;;;;;;;;;;22.27;72.48;101621.19;5051800;28;19916;-84
2023/05/07 11:47:27;;;;;;;;;;;;;;;22.41;72.33;101624.91;5050955;28;19952;-84
2023/05/07 11:49:53;;;;;;;;;;;;;;;22.49;71.68;101622.63;5071905;28;19919;-83
2023/05/07 11:52:20;;;;;;;;;;;;;;;22.57;72.10;101622.16;5042665;28;19966;-83
2023/05/07 11:54:55;;;;;;;;;;;;;;;22.65;71.84;101628.84;5033183;28;20349;-83
2023/05/07 11:57:20;;;;;;;;;;;;;;;22.73;71.25;101623.84;5041200;28;19916;-83
2023/05/07 11:59:49;;;;;;;;;;;;;;;22.85;71.02;101629.44;5036593;28;19917;-83
2023/05/07 12:02:15;;;;;;;;;;;;;;;22.91;70.63;101626.38;5054277;28;19921;-83
2023/05/07 12:04:41;;;;;;;;;;;;;;;22.98;70.17;101632.31;5053952;28;19928;-83
2023/05/07 12:07:15;;;;;;;;;;;;;;;23.01;70.24;101627.59;5052629;28;19924;-83
2023/05/07 12:09:41;;;;;;;;;;;;;;;23.07;70.76;101627.22;5040562;28;20054;-83
2023/05/07 12:12:07;;;;;;;;;;;;;;;23.08;69.75;101626.25;5036202;28;19944;-83
2023/05/07 12:14:32;;;;;;;;;;;;;;;23.05;65.57;101622.88;5053982;28;20232;-83
2023/05/07 12:16:58;;;;;;;;;;;;;;;22.99;69.20;101628.66;5053949;28;19994;-83
2023/05/07 12:19:24;;;;;;;;;;;;;;;22.94;68.98;101618.94;5053872;28;20039;-83
2023/05/07 12:21:49;;;;;;;;;;;;;;;22.99;69.50;101629.50;5052948;28;19960;-83
2023/05/07 12:24:15;;;;;;;;;;;;;;;23.04;69.42;101621.97;5053561;28;20014;-84
2023/05/07 12:26:40;;;;;;;;;;;;;;;23.15;68.80;101624.03;5036735;28;20415;-84
2023/05/07 12:29:06;;;;;;;;;;;;;;;23.20;67.87;101624.63;5052381;28;19917;-84
2023/05/07 12:31:32;;;;;;;;;;;;;;;23.24;68.60;101631.53;5053674;28;19955;-83
2023/05/07 12:33:57;;;;;;;;;;;;;;;23.26;67.96;101639.56;5051089;28;19925;-83
2023/05/07 12:36:23;;;;;;;;;;;;;;;23.22;67.85;101638.91;5048719;28;19916;-83
2023/05/07 12:38:51;;;;;;;;;;;;;;;23.20;68.13;101640.84;5053184;28;19944;-83